Date,TemperatureHighF,TemperatureAvgF,TemperatureLowF,DewpointHighF,DewpointAvgF,DewpointLowF,HumidityHigh,HumidityAvg,HumidityLow,PressureMaxIn,PressureMinIn,WindSpeedMaxMPH,WindSpeedAvgMPH,GustSpeedMaxMPH,PrecipitationSumIn
2013-1-1,43,37,31,33,27,23,76,67,54,29.86,29.73,22,7,22,0.00
2013-1-2,43,38,33,34,28,25,77,67,52,30.32,29.81,21,11,22,0.00
2013-1-3,42,38,34,36,30,25,82,74,64,30.33,30.22,31,18,35,0.01
2013-1-4,49,45,42,43,38,34,87,78,61,30.36,30.11,21,11,28,0.25
2013-1-5,50,44,40,41,37,35,89,77,67,30.27,30.11,30,13,30,0.02
2013-1-6,44,42,40,39,37,35,90,83,74,30.26,30.05,21,8,21,0.07
2013-1-7,44,39,37,38,35,34,90,85,76,30.27,30.11,14,5,18,0.09
2013-1-8,40,39,35,37,36,32,90,88,86,30.23,30.09,13,6,16,0.06
2013-1-9,42,40,38,37,36,32,88,85,78,30.12,29.82,15,8,17,0.01
2013-1-10,38,36,35,33,30,26,86,79,69,29.82,29.65,17,10,21,0.07
2013-1-11,35,29,23,27,19,13,73,66,53,29.94,29.65,21,10,21,0.01
2013-1-12,34,24,19,20,14,10,77,66,48,29.99,29.91,11,5,14,0.00
2013-1-13,28,24,20,20,16,12,76,70,62,29.99,29.95,10,5,12,0.00
2013-1-14,28,25,23,22,20,16,83,79,74,29.95,29.81,11,4,13,0.00
2013-1-15,29,23,17,20,18,12,84,79,67,29.83,29.67,9,3,11,0.00
2013-1-16,26,25,24,23,21,20,86,84,81,29.69,29.65,14,6,17,0.00
2013-1-17,26,24,23,20,19,16,83,79,71,29.82,29.66,20,14,24,0.00
2013-1-18,23,20,18,19,14,12,84,77,70,29.81,29.62,15,9,20,0.00
2013-1-19,22,19,18,14,12,9,81,74,62,29.62,29.47,9,5,11,0.00
2013-1-20,25,22,18,21,16,12,84,78,72,29.48,29.39,11,6,13,0.00
2013-1-21,25,23,19,21,19,15,86,84,83,29.51,29.38,9,2,11,0.00
2013-1-22,23,19,16,15,12,11,83,75,65,29.69,29.51,0,0,0,0.00
2013-1-23,25,20,18,16,14,11,79,74,68,29.72,29.67,7,2,8,0.00
2013-1-24,22,20,18,17,15,12,84,79,75,29.91,29.70,12,7,13,0.00
2013-1-25,22,15,2,13,8,-5,78,73,65,30.04,29.90,13,6,16,0.00
2013-1-26,17,10,-1,10,3,-8,76,72,66,29.98,29.89,8,3,9,0.00
2013-1-27,32,26,15,26,19,9,84,76,68,29.89,29.66,14,6,19,0.00
2013-1-28,39,33,30,29,27,25,84,79,65,29.99,29.67,17,8,19,0.14
2013-1-29,40,38,33,38,33,29,89,83,75,29.98,29.79,26,15,29,0.09
2013-1-30,54,47,40,46,41,34,92,81,68,29.82,29.62,33,18,36,0.20
2013-1-31,48,43,38,35,29,24,77,59,40,29.89,29.70,30,18,39,0.02
2013-2-1,44,39,35,34,31,27,86,72,56,29.77,29.21,23,11,30,0.07
2013-2-2,38,36,29,35,28,15,88,73,54,29.67,29.13,24,10,29,0.05
2013-2-3,39,32,24,26,19,15,79,59,44,29.87,29.68,28,11,31,0.00
2013-2-4,39,35,31,34,29,25,83,79,74,29.73,29.64,28,16,29,0.08
2013-2-5,47,38,33,33,29,25,81,69,44,29.74,29.41,27,11,28,0.01
2013-2-6,45,34,27,25,20,14,74,58,32,29.53,29.42,18,5,21,0.00
2013-2-7,41,30,27,28,22,20,80,70,53,29.73,29.53,12,3,14,0.00
2013-2-8,43,29,24,24,20,15,80,67,41,29.84,29.72,10,4,11,0.01
2013-2-9,34,27,25,22,18,15,83,70,52,29.96,29.83,11,4,11,0.01
2013-2-10,40,28,21,21,15,8,76,58,36,29.95,29.81,8,3,11,0.00
2013-2-11,27,25,19,17,13,9,77,62,48,29.81,29.68,15,7,16,0.00
2013-2-12,30,27,26,23,20,16,86,75,67,29.84,29.65,14,7,16,0.00
2013-2-13,32,27,26,23,21,18,86,76,63,30.21,29.84,14,7,14,0.00
2013-2-14,32,28,26,23,21,20,81,77,69,30.21,30.00,8,4,11,0.02
2013-2-15,36,30,28,28,25,23,85,80,68,30.07,29.95,6,2,6,0.02
2013-2-16,40,32,28,29,26,23,84,76,61,30.15,30.07,4,2,5,0.01
2013-2-17,37,32,30,30,28,26,87,84,73,30.16,30.12,7,1,8,0.05
2013-2-18,35,31,29,29,26,23,88,80,63,30.12,29.99,5,1,7,0.00
2013-2-19,33,31,28,28,24,20,82,76,65,30.00,29.74,21,8,24,0.05
2013-2-20,32,27,22,23,20,15,84,73,56,30.04,29.87,15,9,18,0.00
2013-2-21,29,23,20,18,16,12,83,74,55,30.06,29.98,11,6,16,0.00
2013-2-22,23,21,18,18,14,10,83,76,63,29.98,29.77,17,10,19,0.00
2013-2-23,28,24,21,23,20,16,86,83,80,29.78,29.66,15,7,15,0.00
2013-2-24,40,31,23,34,27,19,91,84,68,29.87,29.67,11,5,11,0.08
2013-2-25,42,36,32,38,33,30,92,88,80,30.18,29.85,8,3,10,0.12
2013-2-26,36,34,31,34,31,28,92,87,79,30.28,30.17,19,10,23,0.00
2013-2-27,35,32,30,30,29,28,91,87,81,30.33,30.28,13,5,14,0.00
2013-2-28,35,32,31,32,28,26,90,84,70,30.32,30.12,7,4,8,0.00
2013-3-1,38,33,31,28,25,22,78,71,63,30.15,30.06,14,6,15,0.00
2013-3-2,51,33,24,24,20,15,78,59,31,30.18,30.04,11,4,12,0.00
2013-3-3,40,32,25,25,20,16,73,63,52,30.14,30.01,14,7,15,0.00
2013-3-4,48,36,26,26,20,16,75,53,29,30.19,30.10,11,4,11,0.00
2013-3-5,52,38,24,25,22,15,75,54,31,30.10,29.81,12,4,12,0.00
2013-3-6,57,39,24,30,26,18,80,61,31,29.81,29.59,9,3,11,0.00
2013-3-7,50,41,34,40,35,27,88,78,68,29.59,29.54,6,3,8,0.00
2013-3-8,45,42,38,42,39,36,94,90,85,29.60,29.57,10,5,11,0.01
2013-3-9,40,38,36,38,36,34,94,93,92,29.61,29.52,7,3,9,0.07
2013-3-10,58,45,38,45,38,34,94,79,43,29.53,29.38,15,5,20,0.00
2013-3-11,43,28,24,38,22,17,87,78,73,29.61,29.38,17,10,17,0.01
2013-3-12,27,24,23,20,19,17,84,79,73,29.60,29.44,13,9,15,0.00
2013-3-13,28,23,20,19,16,12,84,73,57,29.65,29.44,14,9,16,0.00
2013-3-14,32,24,15,15,11,8,76,59,39,29.75,29.65,19,8,20,0.00
2013-3-15,32,24,17,16,12,9,75,62,41,29.97,29.73,17,8,19,0.00
2013-3-16,42,28,15,16,9,-1,73,48,17,30.04,29.92,10,4,10,0.00
2013-3-17,43,32,21,15,12,8,61,44,27,29.93,29.60,21,10,25,0.00
2013-3-18,42,32,26,28,22,15,87,67,44,29.61,29.18,13,6,17,0.00
2013-3-19,42,35,30,30,28,26,87,75,61,29.53,29.18,17,8,23,0.35
2013-3-20,58,42,32,33,29,26,82,63,35,29.72,29.53,14,7,16,0.04
2013-3-21,37,33,27,32,24,17,84,68,51,29.99,29.72,20,10,26,0.00
2013-3-22,32,28,26,20,18,15,73,66,55,30.03,29.98,16,10,18,0.01
2013-3-23,33,25,15,17,6,-4,67,46,27,30.10,30.01,21,12,24,0.00
2013-3-24,36,23,13,7,-2,-10,53,36,15,30.10,29.98,24,13,26,0.00
2013-3-25,33,25,20,8,5,1,55,43,28,29.99,29.83,24,14,26,0.00
2013-3-26,32,26,20,8,2,-8,59,37,17,29.83,29.76,30,14,30,0.00
2013-3-27,29,26,23,21,15,4,81,64,39,29.83,29.78,17,8,17,0.00
2013-3-28,40,31,25,24,21,19,82,68,47,29.81,29.69,17,6,17,0.01
2013-3-29,44,35,29,29,23,16,85,63,38,29.69,29.58,23,7,23,0.06
2013-3-30,48,35,28,25,21,18,71,59,35,29.67,29.59,17,7,17,0.00
2013-3-31,34,30,28,23,21,18,79,67,55,29.73,29.64,18,11,18,0.00
2013-4-1,43,31,26,25,19,16,76,63,40,29.81,29.70,14,7,14,0.00
2013-4-2,40,32,26,23,20,17,80,61,43,29.86,29.78,15,9,18,0.00
2013-4-3,35,31,29,22,20,18,73,65,50,29.89,29.86,17,10,19,0.00
2013-4-4,36,32,28,25,23,21,79,72,60,29.87,29.78,13,7,13,0.00
2013-4-5,36,33,30,28,26,25,86,77,65,29.79,29.67,16,9,16,0.00
2013-4-6,42,34,32,29,27,24,83,76,48,30.03,29.60,12,8,13,0.00
2013-4-7,44,35,27,28,24,16,82,66,41,30.06,29.95,13,5,14,0.00
2013-4-8,51,38,21,25,17,11,78,47,23,29.95,29.64,17,6,21,0.00
2013-4-9,42,37,35,28,23,20,64,57,43,29.65,29.62,8,3,8,0.00
2013-4-10,44,43,42,36,35,34,75,73,70,29.77,29.76,10,7,10,0.01
2013-4-11,60,48,39,46,39,33,80,69,48,29.78,29.57,21,9,24,0.01
2013-4-12,58,51,41,48,42,34,91,72,50,29.75,29.50,31,10,32,0.12
2013-4-13,60,50,41,38,35,31,75,58,34,30.17,29.74,23,11,28,0.00
2013-4-14,70,52,37,38,34,30,79,52,26,30.29,30.18,10,4,11,0.00
2013-4-15,74,58,44,37,34,28,71,44,23,30.24,30.08,13,7,17,0.00
2013-4-16,73,60,50,46,36,28,71,42,26,30.10,30.04,11,5,13,0.01
2013-4-17,74,61,50,52,46,42,87,61,36,30.17,30.07,11,4,14,0.00
2013-4-18,85,65,48,49,44,41,77,50,24,30.08,29.90,15,7,19,0.00
2013-4-19,62,55,46,51,39,28,82,58,33,30.17,29.97,13,5,13,0.17
2013-4-20,50,46,42,42,38,34,87,74,64,30.23,30.16,17,11,20,0.21
2013-4-21,69,54,40,45,39,34,79,58,41,30.19,29.89,14,8,17,0.00
2013-4-22,74,58,40,50,44,36,86,63,35,29.97,29.87,11,4,13,0.00
2013-4-23,69,58,49,47,41,35,85,57,31,30.16,29.97,19,7,22,0.00
2013-4-24,76,60,44,40,37,34,69,45,25,30.26,30.16,11,5,17,0.00
2013-4-25,83,65,50,45,42,39,71,46,24,30.22,30.06,12,5,13,0.00
2013-4-26,82,66,49,47,42,36,73,45,20,30.05,29.54,17,6,19,0.00
2013-4-27,64,56,45,51,46,42,90,72,51,29.68,29.53,24,12,26,0.11
2013-4-28,51,45,41,42,39,36,93,80,64,29.96,29.63,23,9,29,0.09
2013-4-29,56,50,44,46,43,39,88,77,67,30.08,29.90,14,5,14,0.01
2013-4-30,64,53,47,47,44,41,88,73,53,30.09,29.99,23,9,27,0.01
2013-5-1,51,47,45,46,44,42,94,88,82,30.14,30.03,17,9,17,0.01
2013-5-2,62,53,47,53,49,45,98,86,70,30.08,29.93,17,7,21,0.07
2013-5-3,54,51,48,49,47,42,97,86,74,29.95,29.87,18,11,21,0.06
2013-5-4,70,55,44,49,44,40,86,70,46,30.01,29.93,21,3,21,0.15
2013-5-17,77,64,54,54,50,45,78,61,41,29.52,29.44,23,9,23,0.00
2013-5-18,73,60,52,54,48,43,91,68,35,29.81,29.51,22,8,22,0.32
2013-5-19,78,61,46,55,49,43,92,68,37,29.79,29.58,32,8,32,0.76
2013-5-20,71,58,46,49,42,38,89,60,32,29.85,29.70,18,9,18,0.01
2013-5-21,71,57,46,43,40,37,76,55,30,29.86,29.74,18,7,18,0.00
2013-5-22,62,51,44,46,42,36,83,73,50,29.78,29.60,20,8,20,0.08
2013-5-23,60,47,40,38,35,30,79,64,34,29.78,29.65,13,4,13,0.00
2013-5-24,55,46,36,41,37,32,86,70,52,29.79,29.65,14,6,16,0.01
2013-5-25,55,45,38,44,39,34,87,80,61,29.79,29.73,17,5,17,0.45
2013-5-26,47,43,40,40,38,37,91,83,72,29.73,29.59,29,15,29,0.30
2013-5-27,58,49,43,47,44,40,93,83,64,29.75,29.56,19,12,22,0.25
2013-5-28,70,56,42,49,44,40,94,69,36,29.74,29.50,17,7,17,0.00
2013-5-29,70,56,47,55,49,44,96,80,51,29.60,29.46,15,4,17,0.17
2013-5-30,51,49,47,50,47,45,96,91,80,29.62,29.39,16,9,19,1.25
2013-5-31,62,53,46,53,49,41,99,86,54,29.62,29.36,16,5,17,0.21
2013-6-1,58,50,43,57,48,39,99,94,84,29.68,29.60,21,8,24,0.76
2013-6-2,54,51,48,54,48,43,98,89,75,29.98,29.64,27,15,30,0.51
2013-6-3,50,47,45,47,45,43,94,90,84,30.05,29.98,17,10,21,0.67
2013-6-4,66,55,48,52,48,45,94,79,55,30.03,29.97,17,8,18,0.06
2013-6-5,67,57,46,50,45,40,90,67,43,30.06,30.01,20,9,20,0.00
2013-6-6,69,58,49,55,51,46,91,77,56,30.11,30.05,9,4,11,0.00
2013-6-7,79,64,50,59,55,48,97,74,44,30.09,30.01,11,4,14,0.00
2013-6-8,82,68,52,61,57,50,95,72,44,30.03,29.85,14,5,14,0.13
2013-6-9,83,64,55,63,58,54,98,82,40,29.85,29.67,21,5,21,0.04
2013-6-10,61,58,55,59,56,50,99,94,81,29.82,29.66,13,6,14,0.57
2013-6-11,71,62,52,51,46,42,87,60,37,30.02,29.82,20,9,22,0.00
2013-6-12,84,67,49,52,45,38,84,49,22,30.09,30.01,8,3,9,0.00
2013-6-13,84,70,53,55,51,45,80,54,33,30.08,29.87,11,5,14,0.00
2013-6-14,77,64,56,56,49,44,90,61,33,30.09,29.87,18,6,19,0.09
2013-6-15,80,65,50,56,51,45,86,61,38,30.02,29.89,12,4,16,0.00
2013-6-16,84,72,58,55,51,46,77,50,30,30.01,29.93,14,6,17,0.05
2013-6-17,88,72,55,65,58,50,83,62,44,30.01,29.91,12,5,14,0.00
2013-6-18,100,79,62,74,67,58,90,69,34,29.99,29.92,10,4,13,0.00
2013-6-19,94,81,66,74,68,64,96,68,38,29.99,29.86,17,6,17,0.00
2013-6-20,97,82,67,72,68,57,96,64,41,29.88,29.72,26,6,27,0.00
2013-6-21,82,72,64,62,57,55,92,61,40,29.98,29.78,21,8,28,0.12
2013-6-22,86,72,60,61,56,54,89,61,34,29.99,29.89,11,4,12,0.07
2013-6-23,80,69,59,59,54,48,84,62,39,29.94,29.85,21,7,24,0.00
2013-6-24,63,58,54,53,50,45,95,78,56,30.02,29.93,12,5,13,0.30
2013-6-25,55,53,49,53,50,46,98,91,81,30.10,29.97,17,10,21,0.99
2013-6-26,58,51,48,48,45,40,94,79,55,30.20,30.07,17,8,21,0.08
2013-6-27,65,55,47,46,43,40,87,66,42,30.21,30.11,11,4,13,0.00
2013-6-28,74,59,43,51,44,39,93,61,30,30.12,30.02,9,4,11,0.00
2013-6-29,68,59,48,52,47,44,88,67,44,30.05,29.94,17,7,20,0.01
2013-6-30,68,58,49,52,41,36,89,57,34,30.14,30.03,17,8,20,0.01
2013-7-1,80,65,51,51,46,43,75,53,30,30.09,29.98,13,6,16,0.00
2013-7-2,87,70,54,54,51,46,79,53,31,29.99,29.90,11,4,14,0.00
2013-7-3,86,67,57,63,56,50,91,69,40,29.94,29.83,16,4,19,0.24
2013-7-4,79,68,59,62,59,57,98,75,52,30.16,29.93,10,4,10,0.04
2013-7-5,78,66,60,64,60,57,96,81,56,30.30,30.16,12,5,16,0.00
2013-7-6,77,67,59,62,59,56,96,77,56,30.32,30.26,14,7,17,0.00
2013-7-7,79,69,57,59,54,51,91,63,39,30.34,30.27,14,7,53,0.00
2013-7-8,80,69,56,57,53,50,82,60,38,30.34,30.25,14,5,15,0.00
2013-7-9,84,73,55,58,55,52,88,56,36,30.27,30.05,12,5,14,0.00
2013-7-10,82,70,60,58,54,52,78,60,37,30.06,29.88,20,7,23,0.00
2013-7-11,67,59,52,53,48,46,83,68,50,30.02,29.93,16,7,21,0.00
2013-7-12,73,63,52,51,49,46,84,61,40,30.07,30.01,17,7,19,0.00
2013-7-13,76,64,51,53,49,46,84,59,38,30.08,30.03,17,6,19,0.00
2013-7-14,78,66,51,55,51,47,85,62,35,30.09,30.03,14,6,18,0.00
2013-7-15,73,64,54,56,49,42,85,61,35,30.15,30.05,21,7,21,0.00
2013-7-16,85,69,51,52,49,46,85,52,27,30.19,30.11,10,3,11,0.00
2013-7-17,87,71,52,56,51,47,84,53,27,30.16,30.10,14,5,17,0.00
2013-7-18,88,72,56,57,53,49,79,53,30,30.16,30.08,13,4,17,0.00
2013-7-19,86,73,60,57,54,50,79,54,31,30.12,29.99,17,6,20,0.00
2013-7-20,80,69,58,57,53,48,79,58,35,30.09,30.03,17,6,17,0.00
2013-7-21,88,72,54,56,51,48,87,51,26,30.14,30.07,13,3,14,0.00
2013-7-22,93,75,54,56,50,44,83,46,22,30.08,29.92,11,3,12,0.00
2013-7-23,91,76,56,57,49,41,76,45,19,29.95,29.88,11,4,14,0.00
2013-7-24,92,75,55,62,51,46,84,48,22,34.53,29.74,13,4,17,0.51
2013-7-25,87,73,63,66,62,59,96,71,41,35.43,35.43,11,4,14,0.02
2013-7-26,95,79,62,65,60,58,91,58,30,35.43,35.43,8,3,13,0.00
2013-7-27,102,84,65,66,60,57,86,49,24,35.43,35.43,11,4,13,0.00
2013-7-28,102,87,68,64,60,56,72,43,23,35.43,29.23,11,4,13,0.00
2013-7-29,89,78,66,68,64,58,96,65,43,35.42,29.19,21,9,24,0.00
2013-7-31,66,63,61,58,57,55,84,80,75,36.39,26.65,7,3,7,1.95
2013-8-1,92,74,57,61,57,55,95,61,30,35.37,33.77,9,3,11,0.00
2013-8-2,100,82,59,62,57,55,90,48,23,35.37,29.63,11,4,14,0.00
2013-8-3,103,84,64,65,59,53,78,48,22,35.42,35.42,13,5,14,0.00
2013-8-4,93,76,68,66,64,60,90,72,33,35.42,27.28,23,13,30,0.11
2013-8-5,61,60,58,60,59,58,99,99,99,32.16,31.77,0,0,0,0.00
2013-8-6,96,86,63,67,63,59,97,49,31,34.42,28.22,36,2,36,0.38
2013-8-7,88,74,62,67,64,62,99,73,48,34.39,34.39,27,1,32,0.13
2013-8-8,90,77,65,68,64,60,87,67,46,34.44,34.21,14,2,14,0.00
2013-8-9,74,62,55,63,58,55,99,87,56,34.41,34.41,17,3,19,0.39
2013-8-10,81,65,53,61,56,52,99,76,41,34.41,34.41,17,0,27,0.18
2013-8-11,79,64,53,60,53,47,99,71,37,34.41,34.41,0,0,13,0.01
2013-8-12,82,68,49,54,49,45,90,56,31,34.41,34.41,13,1,17,0.00
2013-8-13,75,64,55,55,48,40,87,59,29,34.41,34.41,17,4,24,0.00
2013-8-14,75,61,47,49,43,38,89,55,28,34.41,34.41,14,3,14,0.00
2013-8-15,81,64,46,50,40,34,83,48,20,34.41,34.41,9,2,12,0.00
2013-8-16,84,68,48,47,42,40,76,43,23,34.41,34.41,10,2,17,0.00
2013-8-17,90,72,51,52,48,43,75,45,24,34.41,31.68,11,1,14,0.00
2013-8-18,90,76,60,57,54,50,74,49,29,34.91,26.62,13,4,21,0.00
2013-8-19,76,65,59,62,58,54,99,80,54,35.32,29.18,14,2,17,0.44
2013-8-20,66,58,52,59,53,49,99,84,58,32.80,26.58,16,4,19,0.01
2013-8-21,78,61,48,56,47,42,98,65,31,27.35,26.65,13,3,14,0.00
2013-8-22,79,61,47,54,48,44,95,65,33,26.65,26.65,11,2,14,0.00
2013-8-23,75,62,48,54,49,45,95,65,37,27.60,26.59,14,4,24,0.00
2013-8-24,78,66,51,56,51,49,94,61,37,28.40,26.58,14,5,18,0.00
2013-8-25,62,58,54,57,54,50,99,86,71,30.14,26.58,14,4,20,0.44
2013-8-26,62,58,56,58,55,50,99,89,67,26.66,26.66,14,1,17,0.44
2013-8-27,63,58,54,54,52,50,92,81,66,26.66,26.66,12,5,13,0.00
2013-8-28,59,55,54,56,54,54,99,97,87,26.66,26.66,4,0,4,0.37
2013-8-29,74,61,32,55,50,48,82,64,40,30.12,0.00,6,1,7,0.37
2013-8-30,84,65,52,55,50,46,91,63,28,30.13,30.04,8,2,11,0.00
2013-8-31,80,66,56,55,52,48,82,62,33,30.06,30.01,16,7,19,0.00
2013-9-1,66,57,50,56,46,39,97,69,42,30.18,30.05,14,7,19,0.30
2013-9-2,66,56,49,53,47,42,85,73,53,30.17,30.06,17,10,27,0.01
2013-9-3,68,62,60,57,55,53,86,76,68,30.26,30.07,23,10,26,0.00
2013-9-4,75,64,56,60,57,53,95,78,56,30.26,30.14,10,3,13,0.00
2013-9-5,86,64,52,61,55,51,99,75,38,30.15,29.99,11,3,13,0.00
2013-9-6,80,65,49,55,52,48,98,67,35,29.99,29.91,14,4,18,0.00
2013-9-7,84,66,49,56,52,47,96,63,33,30.07,29.97,11,4,11,0.00
2013-9-8,86,67,55,59,53,46,77,61,37,30.07,29.95,11,4,13,0.00
2013-9-9,71,60,48,57,51,44,97,75,45,30.04,29.83,21,7,23,0.26
2013-9-10,62,52,46,53,48,42,94,86,65,30.03,29.88,13,6,14,0.21
2013-9-11,63,53,48,48,46,44,96,78,51,29.94,29.86,20,9,24,0.00
2013-9-12,62,53,49,49,47,46,97,82,56,29.95,29.82,14,6,14,0.18
2013-9-13,67,55,49,51,49,47,97,81,54,30.02,29.94,11,5,11,0.01
2013-9-14,76,60,50,54,50,47,91,73,38,29.99,29.87,17,9,18,0.00
2013-9-15,72,60,55,58,55,54,97,84,59,29.88,29.70,13,6,15,0.05
2013-9-16,59,55,52,55,51,48,97,88,75,29.71,29.49,20,7,21,0.12
2013-9-17,60,49,42,50,43,37,96,81,44,29.65,29.48,17,8,24,0.07
2013-9-18,58,48,40,54,45,38,94,91,85,29.62,29.40,14,7,17,0.26
2013-9-19,62,50,42,49,43,40,95,80,52,29.90,29.57,16,8,24,0.08
2013-9-20,62,51,47,52,47,42,93,85,66,30.02,29.86,14,8,20,0.19
2013-9-21,60,53,48,50,48,46,94,84,69,30.28,30.01,18,6,18,0.00
2013-9-22,66,54,46,51,48,44,95,80,55,30.29,30.17,11,6,13,0.00
2013-9-23,64,57,52,53,49,47,89,77,60,30.17,30.03,22,10,23,0.00
2013-9-24,67,57,52,53,49,47,84,76,58,30.03,29.90,14,6,16,0.00
2013-9-25,64,55,49,52,49,46,92,81,62,29.92,29.78,9,3,10,0.00
2013-9-26,68,54,45,56,49,42,95,85,50,30.02,29.73,24,10,25,0.07
2013-9-27,66,46,35,45,39,33,97,78,42,30.05,29.98,10,3,14,0.01
2013-9-28,66,48,33,43,37,31,95,69,35,30.00,29.91,10,3,11,0.00
2013-9-29,60,48,37,41,38,36,97,71,44,29.96,29.88,21,9,24,0.00
2013-9-30,60,47,37,39,36,34,94,68,40,29.89,29.82,17,9,19,0.00
2013-10-1,58,44,32,38,33,29,92,68,43,30.02,29.86,18,5,21,0.00
2013-10-2,56,42,30,39,30,26,91,65,35,30.27,30.02,14,5,17,0.00
2013-10-3,56,41,27,34,28,22,90,63,35,30.31,30.25,17,6,19,0.00
2013-10-4,61,44,28,33,29,24,87,60,28,30.28,30.13,15,6,16,0.00
2013-10-5,62,45,31,38,33,27,85,65,38,30.13,30.00,10,3,13,0.00
2013-10-6,63,50,41,44,39,37,86,67,46,30.25,30.04,7,2,8,0.00
2013-10-7,58,49,42,45,43,39,93,79,60,30.30,30.24,7,2,8,0.00
2013-10-8,66,50,37,51,43,36,98,80,47,30.26,30.15,9,2,11,0.00
2013-10-9,56,48,40,48,44,39,97,87,71,30.15,29.86,10,5,11,0.00
2013-10-10,65,53,46,48,46,43,92,80,53,29.85,29.63,19,8,19,0.26
2013-10-11,50,50,50,47,47,47,89,89,89,29.66,29.66,8,8,13,0.00
2013-10-12,50,50,50,47,47,47,89,89,89,29.66,29.66,8,8,13,0.00
2013-10-13,68,49,38,51,44,36,95,83,50,29.95,29.47,24,7,24,0.32
2013-10-14,68,44,33,47,40,31,96,86,48,29.94,29.84,10,3,11,0.01
2013-10-15,57,47,38,48,42,37,98,85,65,29.83,29.53,17,6,20,0.01
2013-10-16,52,45,40,44,40,37,89,82,67,29.78,29.51,17,6,18,0.02
2013-10-17,60,47,37,47,42,34,95,81,58,29.76,29.65,24,12,27,0.09
2013-10-18,54,48,40,46,40,36,87,74,63,29.93,29.66,27,8,29,0.02
2013-10-19,62,46,36,44,39,33,95,78,48,29.93,29.79,14,4,16,0.00
2013-10-20,71,53,42,52,47,38,94,80,48,29.85,29.79,12,4,13,0.18
2013-10-21,71,58,52,53,51,48,94,78,52,29.86,29.80,18,8,20,0.01
2013-10-22,73,56,47,55,50,45,95,80,49,29.85,29.72,13,4,14,0.00
2013-10-23,68,56,51,54,51,48,95,83,58,29.77,29.65,10,4,12,0.01
2013-10-24,72,58,49,52,49,45,90,72,45,29.94,29.76,15,6,17,0.02
2013-10-25,56,49,43,52,47,41,95,92,85,29.93,29.83,7,2,8,0.00
2013-10-26,71,58,48,54,50,47,96,77,52,29.84,29.78,14,6,17,0.01
2013-10-27,69,58,52,52,47,42,87,68,46,29.78,29.58,29,11,34,0.01
2013-10-28,75,60,51,50,45,40,74,58,30,29.69,29.46,26,11,30,0.00
2013-10-29,59,52,46,45,43,41,86,70,55,29.86,29.61,25,11,27,0.00
2013-10-30,60,47,36,44,38,30,89,72,39,30.12,29.86,17,5,21,0.00
2013-10-31,58,39,30,38,32,28,93,78,42,30.14,29.96,8,2,9,0.00
2013-11-1,51,43,33,42,38,30,97,82,64,29.96,29.81,14,6,18,0.00
2013-11-5,40,40,40,38,38,38,90,90,90,29.78,29.78,0,0,0,0.00
2013-11-6,55,42,40,43,38,36,94,87,64,30.11,29.78,18,3,18,0.34
2013-11-7,64,54,44,51,47,42,97,79,60,30.14,29.97,33,14,36,0.02
2013-11-8,65,55,50,49,47,44,85,75,56,30.14,30.03,20,8,25,0.01
2013-11-9,54,48,40,48,42,35,88,80,60,30.19,30.02,18,8,24,0.09
2013-11-10,53,41,36,40,36,31,92,83,60,30.26,29.89,21,7,24,0.32
2013-11-11,48,40,36,36,35,30,90,81,63,30.72,30.27,14,5,14,0.00
2013-11-12,57,40,30,36,31,25,86,70,41,30.71,30.49,7,2,8,0.00
2013-11-13,42,35,30,38,32,27,90,86,81,30.66,30.50,10,4,11,0.00
2013-11-14,36,33,30,32,30,27,91,89,81,30.61,30.36,8,3,10,0.01
2013-11-15,37,35,32,34,32,29,91,88,86,30.64,30.38,10,3,11,0.06
2013-11-16,55,40,33,41,35,30,92,83,56,30.67,30.56,10,3,11,0.00
2013-11-17,35,33,29,33,30,27,93,91,88,30.56,30.36,10,4,10,0.01
2013-11-18,41,39,35,40,37,33,97,93,89,30.36,30.10,8,2,11,0.01
2013-11-19,44,42,39,40,38,36,92,88,83,30.10,29.86,11,5,12,0.00
2013-11-20,43,39,36,40,37,32,94,90,84,29.90,29.78,17,6,20,0.14
2013-11-21,40,38,35,38,33,29,94,85,75,29.89,29.78,11,4,14,0.00
2013-11-22,50,42,40,40,38,36,95,87,65,30.09,29.83,11,6,13,0.01
2013-11-23,42,40,38,39,37,36,95,90,83,30.19,30.09,17,11,20,0.00
2013-11-24,42,38,36,40,34,28,93,85,73,30.24,30.17,22,14,25,0.00
2013-11-28,34,34,33,28,27,26,83,77,73,30.53,30.50,17,12,21,0.00
2013-11-29,39,35,33,32,29,28,84,79,72,30.52,30.06,27,12,30,0.06
2013-11-30,42,36,34,33,30,29,85,80,69,30.49,30.05,24,11,25,0.06
2013-12-1,44,37,33,33,30,28,84,78,64,30.59,30.49,14,8,18,0.01
2013-12-2,45,37,30,34,30,26,87,76,58,30.82,30.59,8,4,11,0.00
2013-12-3,44,28,23,32,23,19,87,79,56,30.79,30.57,4,1,6,0.00
2013-12-4,34,28,19,28,23,15,87,81,75,30.57,30.42,22,7,24,0.01
2013-12-5,40,36,32,32,28,25,85,74,63,30.52,29.88,38,17,45,0.07
2013-12-6,38,33,29,31,22,19,85,65,50,30.18,29.90,36,18,39,0.01
2013-12-7,35,32,29,28,23,18,82,68,58,30.42,30.18,29,14,34,0.00
2013-12-8,44,37,33,34,31,28,84,79,68,30.50,30.41,24,12,27,0.00
2013-12-9,43,41,39,37,36,33,85,81,77,30.67,30.38,28,15,31,0.06
2013-12-10,49,43,40,41,38,36,86,83,74,30.84,30.66,13,5,13,0.00
2013-12-11,42,40,36,38,36,32,89,87,85,30.83,30.76,8,4,9,0.00
2013-12-12,36,34,31,32,30,27,89,87,85,30.77,30.62,6,2,8,0.01
2013-12-13,32,30,29,29,28,26,89,89,88,30.61,30.50,8,1,9,0.00
2013-12-14,35,32,29,31,28,26,89,86,82,30.66,30.49,14,4,17,0.01
2013-12-15,42,37,34,32,30,27,85,75,66,30.71,30.64,20,12,24,0.00
2013-12-16,58,38,28,32,27,22,83,67,36,30.71,30.66,14,4,15,0.00
2013-12-17,42,27,23,33,22,18,87,81,68,30.67,30.59,6,2,8,0.01
2013-12-18,27,26,25,23,22,20,84,83,82,30.59,30.37,6,2,7,0.00
2013-12-19,30,27,25,24,22,20,83,80,75,30.36,30.20,11,6,13,0.00
2013-12-20,35,31,29,30,26,24,85,82,78,30.70,30.30,13,5,15,0.00
2013-12-21,42,34,28,34,28,23,85,79,66,30.73,30.55,17,6,20,0.01
2013-12-22,47,38,28,38,32,23,86,78,67,30.54,30.35,19,7,27,0.01
2013-12-23,52,44,38,38,36,33,82,73,55,30.41,30.20,21,9,24,0.00
2013-12-24,41,36,31,34,30,26,85,79,71,30.20,29.87,17,6,17,0.00
2013-12-25,41,35,31,36,32,27,90,86,81,29.86,29.64,10,3,14,0.00
2013-12-26,51,38,34,44,34,30,92,85,71,29.85,29.57,13,3,14,0.00
2013-12-27,50,41,33,38,34,28,91,76,56,30.08,29.84,15,7,20,0.01
2013-12-28,39,33,28,34,28,23,87,82,75,30.04,29.97,12,3,17,0.00
2013-12-29,46,37,32,35,31,28,87,78,61,30.50,30.03,16,8,19,0.00
2013-12-30,49,35,27,34,27,21,85,73,49,30.63,30.50,10,5,11,0.01
2013-12-31,32,27,21,28,22,16,86,82,76,30.54,30.30,6,2,6,0.00
2014-1-1,39,33,30,34,27,25,87,80,70,30.30,30.16,9,3,10,0.00
2014-1-2,36,32,28,29,27,22,86,80,72,30.16,30.05,8,3,9,0.00